sensor_id;sensor_type;location;lat;lon;timestamp;pressure;altitude;pressure_sealevel;temperature;humidity
70544;BME280;58097;48.364;-1.224;2023-03-01T00:00:54;100761.78;;;0.31;81.26
70544;BME280;58097;48.364;-1.224;2023-03-01T00:03:19;100766.34;;;0.30;81.05
70544;BME280;58097;48.364;-1.224;2023-03-01T00:05:45;100761.69;;;0.33;80.39
70544;BME280;58097;48.364;-1.224;2023-03-01T00:08:11;100765.31;;;0.33;80.47
70544;BME280;58097;48.364;-1.224;2023-03-01T00:10:36;100761.91;;;0.28;80.60
70544;BME280;58097;48.364;-1.224;2023-03-01T00:13:02;100769.25;;;0.26;80.33
70544;BME280;58097;48.364;-1.224;2023-03-01T00:15:27;100770.50;;;0.19;80.51
70544;BME280;58097;48.364;-1.224;2023-03-01T00:17:53;100776.03;;;0.17;80.43
70544;BME280;58097;48.364;-1.224;2023-03-01T00:20:18;100779.63;;;0.18;79.87
70544;BME280;58097;48.364;-1.224;2023-03-01T00:22:43;100788.75;;;0.17;79.73
70544;BME280;58097;48.364;-1.224;2023-03-01T00:25:09;100789.63;;;0.17;79.51
70544;BME280;58097;48.364;-1.224;2023-03-01T00:27:34;100794.31;;;0.14;79.70
70544;BME280;58097;48.364;-1.224;2023-03-01T00:29:59;100796.31;;;0.10;79.43
70544;BME280;58097;48.364;-1.224;2023-03-01T00:32:25;100798.53;;;0.02;79.96
70544;BME280;58097;48.364;-1.224;2023-03-01T00:34:50;100802.25;;;-0.01;80.25
70544;BME280;58097;48.364;-1.224;2023-03-01T00:37:21;100803.19;;;-0.02;79.47
70544;BME280;58097;48.364;-1.224;2023-03-01T00:39:47;100806.00;;;-0.03;79.72
70544;BME280;58097;48.364;-1.224;2023-03-01T00:42:12;100809.81;;;-0.07;79.96
70544;BME280;58097;48.364;-1.224;2023-03-01T00:44:38;100796.53;;;-0.13;80.28
70544;BME280;58097;48.364;-1.224;2023-03-01T00:47:03;100801.16;;;-0.15;80.20
70544;BME280;58097;48.364;-1.224;2023-03-01T00:49:28;100801.16;;;-0.15;79.77
70544;BME280;58097;48.364;-1.224;2023-03-01T00:51:54;100796.97;;;-0.22;80.39
70544;BME280;58097;48.364;-1.224;2023-03-01T00:54:19;100793.38;;;-0.23;79.91
70544;BME280;58097;48.364;-1.224;2023-03-01T00:56:44;100789.41;;;-0.16;79.18
70544;BME280;58097;48.364;-1.224;2023-03-01T00:59:10;100781.31;;;-0.17;79.04
70544;BME280;58097;48.364;-1.224;2023-03-01T01:01:35;100783.16;;;-0.18;78.79
70544;BME280;58097;48.364;-1.224;2023-03-01T01:04:04;100786.59;;;-0.14;78.16
70544;BME280;58097;48.364;-1.224;2023-03-01T01:08:57;100784.25;;;-0.22;77.79
70544;BME280;58097;48.364;-1.224;2023-03-01T01:11:25;100781.63;;;-0.23;77.68
70544;BME280;58097;48.364;-1.224;2023-03-01T01:13:51;100780.72;;;-0.24;77.43
70544;BME280;58097;48.364;-1.224;2023-03-01T01:16:18;100783.59;;;-0.27;77.48
70544;BME280;58097;48.364;-1.224;2023-03-01T01:18:44;100782.72;;;-0.27;77.16
70544;BME280;58097;48.364;-1.224;2023-03-01T01:21:12;100776.66;;;-0.34;77.59
70544;BME280;58097;48.364;-1.224;2023-03-01T01:23:39;100779.31;;;-0.33;77.19
70544;BME280;58097;48.364;-1.224;2023-03-01T01:26:10;100776.66;;;-0.34;77.09
70544;BME280;58097;48.364;-1.224;2023-03-01T01:28:36;100777.53;;;-0.34;76.63
70544;BME280;58097;48.364;-1.224;2023-03-01T01:31:02;100780.25;;;-0.34;76.87
70544;BME280;58097;48.364;-1.224;2023-03-01T01:33:27;100778.56;;;-0.36;76.98
70544;BME280;58097;48.364;-1.224;2023-03-01T01:35:53;100779.44;;;-0.36;76.83
70544;BME280;58097;48.364;-1.224;2023-03-01T01:38:18;100782.25;;;-0.37;76.74
70544;BME280;58097;48.364;-1.224;2023-03-01T01:40:45;100784.22;;;-0.41;77.44
70544;BME280;58097;48.364;-1.224;2023-03-01T01:43:38;100777.31;;;-0.48;77.28
70544;BME280;58097;48.364;-1.224;2023-03-01T01:46:15;100783.41;;;-0.43;76.69
70544;BME280;58097;48.364;-1.224;2023-03-01T01:48:47;100774.25;;;-0.40;76.64
70544;BME280;58097;48.364;-1.224;2023-03-01T01:51:18;100779.59;;;-0.39;76.29
70544;BME280;58097;48.364;-1.224;2023-03-01T01:53:49;100778.56;;;-0.36;76.41
70544;BME280;58097;48.364;-1.224;2023-03-01T01:56:17;100774.97;;;-0.37;76.04
70544;BME280;58097;48.364;-1.224;2023-03-01T01:58:44;100776.72;;;-0.36;76.16
70544;BME280;58097;48.364;-1.224;2023-03-01T02:01:11;100771.31;;;-0.36;75.83
70544;BME280;58097;48.364;-1.224;2023-03-01T02:03:38;100767.63;;;-0.35;75.64
70544;BME280;58097;48.364;-1.224;2023-03-01T02:06:20;100769.31;;;-0.32;75.89
70544;BME280;58097;48.364;-1.224;2023-03-01T02:08:48;100767.63;;;-0.35;75.69
70544;BME280;58097;48.364;-1.224;2023-03-01T02:11:15;100765.94;;;-0.37;75.29
70544;BME280;58097;48.364;-1.224;2023-03-01T02:13:41;100769.53;;;-0.37;75.59
70544;BME280;58097;48.364;-1.224;2023-03-01T02:16:12;100760.59;;;-0.39;75.28
70544;BME280;58097;48.364;-1.224;2023-03-01T02:18:39;100763.31;;;-0.39;75.30
70544;BME280;58097;48.364;-1.224;2023-03-01T02:23:56;100760.66;;;-0.40;75.23
70544;BME280;58097;48.364;-1.224;2023-03-01T02:26:42;100759.91;;;-0.44;75.10
70544;BME280;58097;48.364;-1.224;2023-03-01T02:29:10;100760.88;;;-0.45;75.02
70544;BME280;58097;48.364;-1.224;2023-03-01T02:31:35;100765.50;;;-0.47;74.73
70544;BME280;58097;48.364;-1.224;2023-03-01T02:34:10;100761.16;;;-0.51;75.02
70544;BME280;58097;48.364;-1.224;2023-03-01T02:36:38;100751.19;;;-0.50;74.93
70544;BME280;58097;48.364;-1.224;2023-03-01T02:39:07;100747.88;;;-0.57;75.55
70544;BME280;58097;48.364;-1.224;2023-03-01T02:41:37;100749.72;;;-0.57;75.18
70544;BME280;58097;48.364;-1.224;2023-03-01T02:44:04;100744.47;;;-0.62;75.11
70544;BME280;58097;48.364;-1.224;2023-03-01T02:46:29;100742.72;;;-0.63;74.86
70544;BME280;58097;48.364;-1.224;2023-03-01T02:48:57;100739.19;;;-0.65;74.52
70544;BME280;58097;48.364;-1.224;2023-03-01T02:54:28;100736.91;;;-0.74;74.60
70544;BME280;58097;48.364;-1.224;2023-03-01T02:56:57;100732.50;;;-0.77;74.31
70544;BME280;58097;48.364;-1.224;2023-03-01T02:59:28;100729.03;;;-0.80;74.82
70544;BME280;58097;48.364;-1.224;2023-03-01T03:01:54;100722.00;;;-0.84;74.48
70544;BME280;58097;48.364;-1.224;2023-03-01T03:04:19;100727.44;;;-0.84;74.64
70544;BME280;58097;48.364;-1.224;2023-03-01T03:06:47;100721.28;;;-0.89;74.82
70544;BME280;58097;48.364;-1.224;2023-03-01T03:09:14;100726.63;;;-0.86;74.83
70544;BME280;58097;48.364;-1.224;2023-03-01T03:11:40;100724.81;;;-0.87;74.66
70544;BME280;58097;48.364;-1.224;2023-03-01T03:14:10;100719.38;;;-0.87;74.56
70544;BME280;58097;48.364;-1.224;2023-03-01T03:16:46;100718.59;;;-0.89;74.19
70544;BME280;58097;48.364;-1.224;2023-03-01T03:19:12;100715.88;;;-0.89;74.54
70544;BME280;58097;48.364;-1.224;2023-03-01T03:21:38;100716.00;;;-0.93;74.48
70544;BME280;58097;48.364;-1.224;2023-03-01T03:24:03;100707.19;;;-0.98;74.37
70544;BME280;58097;48.364;-1.224;2023-03-01T03:26:30;100710.41;;;-1.08;74.75
70544;BME280;58097;48.364;-1.224;2023-03-01T03:28:56;100717.66;;;-1.09;74.79
70544;BME280;58097;48.364;-1.224;2023-03-01T03:31:22;100705.25;;;-1.14;74.97
70544;BME280;58097;48.364;-1.224;2023-03-01T03:33:48;100708.00;;;-1.16;74.73
70544;BME280;58097;48.364;-1.224;2023-03-01T03:36:18;100704.63;;;-1.21;75.02
70544;BME280;58097;48.364;-1.224;2023-03-01T03:38:44;100691.13;;;-1.22;75.09
70544;BME280;58097;48.364;-1.224;2023-03-01T03:41:11;100690.25;;;-1.23;74.82
70544;BME280;58097;48.364;-1.224;2023-03-01T03:43:38;100689.50;;;-1.27;74.86
70544;BME280;58097;48.364;-1.224;2023-03-01T03:46:04;100684.56;;;-1.37;75.68
70544;BME280;58097;48.364;-1.224;2023-03-01T03:48:34;100685.59;;;-1.40;75.62
70544;BME280;58097;48.364;-1.224;2023-03-01T03:50:59;100685.78;;;-1.44;75.73
70544;BME280;58097;48.364;-1.224;2023-03-01T03:53:26;100688.53;;;-1.46;75.85
70544;BME280;58097;48.364;-1.224;2023-03-01T03:55:53;100683.03;;;-1.43;75.42
70544;BME280;58097;48.364;-1.224;2023-03-01T03:58:21;100688.50;;;-1.44;75.46
70544;BME280;58097;48.364;-1.224;2023-03-01T04:00:48;100679.44;;;-1.43;75.55
70544;BME280;58097;48.364;-1.224;2023-03-01T04:03:15;100676.72;;;-1.43;75.48
70544;BME280;58097;48.364;-1.224;2023-03-01T04:05:42;100682.25;;;-1.46;75.63
70544;BME280;58097;48.364;-1.224;2023-03-01T04:08:08;100677.69;;;-1.46;75.40
70544;BME280;58097;48.364;-1.224;2023-03-01T04:10:36;100673.28;;;-1.48;75.51
70544;BME280;58097;48.364;-1.224;2023-03-01T04:13:03;100674.09;;;-1.46;75.46
70544;BME280;58097;48.364;-1.224;2023-03-01T04:15:31;100668.81;;;-1.49;75.57
70544;BME280;58097;48.364;-1.224;2023-03-01T04:17:58;100678.72;;;-1.48;75.44
70544;BME280;58097;48.364;-1.224;2023-03-01T04:20:26;100673.44;;;-1.51;75.67
70544;BME280;58097;48.364;-1.224;2023-03-01T04:22:57;100672.63;;;-1.53;75.48
70544;BME280;58097;48.364;-1.224;2023-03-01T04:25:23;100670.84;;;-1.54;75.50
70544;BME280;58097;48.364;-1.224;2023-03-01T04:27:49;100675.34;;;-1.53;75.33
70544;BME280;58097;48.364;-1.224;2023-03-01T04:30:14;100675.19;;;-1.50;75.31
70544;BME280;58097;48.364;-1.224;2023-03-01T04:32:40;100669.78;;;-1.50;75.17
70544;BME280;58097;48.364;-1.224;2023-03-01T04:35:05;100672.63;;;-1.53;74.83
70544;BME280;58097;48.364;-1.224;2023-03-01T04:37:31;100675.25;;;-1.52;75.01
70544;BME280;58097;48.364;-1.224;2023-03-01T04:39:56;100666.38;;;-1.56;74.92
70544;BME280;58097;48.364;-1.224;2023-03-01T04:42:22;100671.94;;;-1.59;74.89
70544;BME280;58097;48.364;-1.224;2023-03-01T04:44:48;100662.06;;;-1.60;74.69
70544;BME280;58097;48.364;-1.224;2023-03-01T04:47:16;100663.06;;;-1.62;74.65
70544;BME280;58097;48.364;-1.224;2023-03-01T04:49:42;100666.66;;;-1.62;74.52
70544;BME280;58097;48.364;-1.224;2023-03-01T04:52:07;100667.66;;;-1.64;74.59
70544;BME280;58097;48.364;-1.224;2023-03-01T04:54:34;100670.44;;;-1.66;74.34
70544;BME280;58097;48.364;-1.224;2023-03-01T04:57:02;100668.69;;;-1.67;74.51
70544;BME280;58097;48.364;-1.224;2023-03-01T04:59:28;100657.84;;;-1.67;74.36
70544;BME280;58097;48.364;-1.224;2023-03-01T05:01:55;100657.97;;;-1.70;74.56
70544;BME280;58097;48.364;-1.224;2023-03-01T05:04:22;100649.03;;;-1.72;74.55
70544;BME280;58097;48.364;-1.224;2023-03-01T05:06:48;100657.09;;;-1.70;74.50
70544;BME280;58097;48.364;-1.224;2023-03-01T05:09:13;100647.16;;;-1.70;74.11
70544;BME280;58097;48.364;-1.224;2023-03-01T05:11:39;100637.34;;;-1.74;74.28
70544;BME280;58097;48.364;-1.224;2023-03-01T05:14:06;100639.09;;;-1.71;74.17
70544;BME280;58097;48.364;-1.224;2023-03-01T05:16:32;100642.66;;;-1.71;74.28
70544;BME280;58097;48.364;-1.224;2023-03-01T05:18:58;100633.59;;;-1.70;74.19
70544;BME280;58097;48.364;-1.224;2023-03-01T05:21:24;100638.94;;;-1.68;73.99
70544;BME280;58097;48.364;-1.224;2023-03-01T05:23:50;100640.56;;;-1.64;73.75
70544;BME280;58097;48.364;-1.224;2023-03-01T05:26:18;100645.78;;;-1.60;73.94
70544;BME280;58097;48.364;-1.224;2023-03-01T05:28:44;100641.19;;;-1.58;73.67
70544;BME280;58097;48.364;-1.224;2023-03-01T05:31:09;100654.47;;;-1.51;73.68
70544;BME280;58097;48.364;-1.224;2023-03-01T05:33:39;100653.50;;;-1.50;73.46
70544;BME280;58097;48.364;-1.224;2023-03-01T05:36:06;100646.19;;;-1.48;73.57
70544;BME280;58097;48.364;-1.224;2023-03-01T05:38:32;100646.94;;;-1.45;73.37
70544;BME280;58097;48.364;-1.224;2023-03-01T05:40:58;100647.84;;;-1.44;73.35
70544;BME280;58097;48.364;-1.224;2023-03-01T05:43:23;100649.09;;;-1.53;73.38
70544;BME280;58097;48.364;-1.224;2023-03-01T05:45:49;100647.28;;;-1.52;73.08
70544;BME280;58097;48.364;-1.224;2023-03-01T05:48:14;100643.00;;;-1.58;73.30
70544;BME280;58097;48.364;-1.224;2023-03-01T05:50:43;100641.31;;;-1.61;73.30
70544;BME280;58097;48.364;-1.224;2023-03-01T05:53:14;100646.81;;;-1.62;73.40
70544;BME280;58097;48.364;-1.224;2023-03-01T05:55:40;100634.28;;;-1.65;73.55
70544;BME280;58097;48.364;-1.224;2023-03-01T05:58:10;100639.63;;;-1.63;73.36
70544;BME280;58097;48.364;-1.224;2023-03-01T06:00:36;100643.22;;;-1.63;73.33
70544;BME280;58097;48.364;-1.224;2023-03-01T06:03:01;100636.78;;;-1.60;73.42
70544;BME280;58097;48.364;-1.224;2023-03-01T06:05:27;100639.56;;;-1.62;73.37
70544;BME280;58097;48.364;-1.224;2023-03-01T06:07:53;100637.66;;;-1.60;73.38
70544;BME280;58097;48.364;-1.224;2023-03-01T06:10:20;100637.72;;;-1.61;73.17
70544;BME280;58097;48.364;-1.224;2023-03-01T06:12:47;100644.84;;;-1.59;73.20
70544;BME280;58097;48.364;-1.224;2023-03-01T06:15:14;100639.41;;;-1.59;73.33
70544;BME280;58097;48.364;-1.224;2023-03-01T06:17:42;100641.19;;;-1.58;72.97
70544;BME280;58097;48.364;-1.224;2023-03-01T06:20:13;100636.50;;;-1.54;73.01
70544;BME280;58097;48.364;-1.224;2023-03-01T06:22:39;100641.91;;;-1.54;72.82
70544;BME280;58097;48.364;-1.224;2023-03-01T06:25:05;100635.47;;;-1.51;73.18
70544;BME280;58097;48.364;-1.224;2023-03-01T06:27:30;100642.72;;;-1.52;72.79
70544;BME280;58097;48.364;-1.224;2023-03-01T06:29:56;100645.50;;;-1.53;72.78
70544;BME280;58097;48.364;-1.224;2023-03-01T06:32:21;100649.97;;;-1.52;72.66
70544;BME280;58097;48.364;-1.224;2023-03-01T06:34:46;100645.72;;;-1.58;72.55
70544;BME280;58097;48.364;-1.224;2023-03-01T06:37:12;100652.16;;;-1.61;72.52
70544;BME280;58097;48.364;-1.224;2023-03-01T06:39:37;100657.72;;;-1.64;72.73
70544;BME280;58097;48.364;-1.224;2023-03-01T06:42:02;100657.56;;;-1.61;72.96
70544;BME280;58097;48.364;-1.224;2023-03-01T06:44:28;100662.78;;;-1.56;72.89
70544;BME280;58097;48.364;-1.224;2023-03-01T06:46:53;100666.25;;;-1.52;72.78
70544;BME280;58097;48.364;-1.224;2023-03-01T06:49:19;100657.16;;;-1.51;72.63
70544;BME280;58097;48.364;-1.224;2023-03-01T06:51:45;100658.94;;;-1.50;72.61
70544;BME280;58097;48.364;-1.224;2023-03-01T06:54:11;100651.75;;;-1.51;72.66
70544;BME280;58097;48.364;-1.224;2023-03-01T06:56:36;100651.88;;;-1.54;72.57
70544;BME280;58097;48.364;-1.224;2023-03-01T06:59:02;100644.84;;;-1.59;72.58
70544;BME280;58097;48.364;-1.224;2023-03-01T07:01:28;100645.84;;;-1.61;72.52
70544;BME280;58097;48.364;-1.224;2023-03-01T07:03:54;100639.41;;;-1.59;72.55
70544;BME280;58097;48.364;-1.224;2023-03-01T07:06:19;100645.78;;;-1.60;72.48
70544;BME280;58097;48.364;-1.224;2023-03-01T07:08:45;100646.66;;;-1.59;72.59
70544;BME280;58097;48.364;-1.224;2023-03-01T07:11:10;100647.53;;;-1.59;72.70
70544;BME280;58097;48.364;-1.224;2023-03-01T07:13:35;100643.81;;;-1.56;72.60
70544;BME280;58097;48.364;-1.224;2023-03-01T07:16:01;100637.44;;;-1.55;72.55
70544;BME280;58097;48.364;-1.224;2023-03-01T07:18:26;100645.44;;;-1.52;72.64
70544;BME280;58097;48.364;-1.224;2023-03-01T07:20:52;100640.84;;;-1.50;72.40
70544;BME280;58097;48.364;-1.224;2023-03-01T07:23:17;100637.97;;;-1.47;72.59
70544;BME280;58097;48.364;-1.224;2023-03-01T07:25:42;100636.72;;;-1.38;72.99
70544;BME280;58097;48.364;-1.224;2023-03-01T07:28:08;100643.75;;;-1.34;72.71
70544;BME280;58097;48.364;-1.224;2023-03-01T07:30:33;100649.03;;;-1.31;72.83
70544;BME280;58097;48.364;-1.224;2023-03-01T07:32:58;100650.88;;;-1.32;73.07
70544;BME280;58097;48.364;-1.224;2023-03-01T07:35:27;100646.34;;;-1.31;73.25
70544;BME280;58097;48.364;-1.224;2023-03-01T07:37:53;100639.81;;;-1.27;73.22
70544;BME280;58097;48.364;-1.224;2023-03-01T07:40:19;100644.22;;;-1.25;73.40
70544;BME280;58097;48.364;-1.224;2023-03-01T07:42:45;100640.28;;;-1.17;73.69
70544;BME280;58097;48.364;-1.224;2023-03-01T07:45:10;100647.34;;;-1.13;73.70
70544;BME280;58097;48.364;-1.224;2023-03-01T07:47:36;100648.69;;;-1.03;73.38
70544;BME280;58097;48.364;-1.224;2023-03-01T07:50:02;100646.63;;;-0.98;74.04
70544;BME280;58097;48.364;-1.224;2023-03-01T07:52:29;100648.84;;;-0.87;73.66
70544;BME280;58097;48.364;-1.224;2023-03-01T07:54:55;100636.47;;;-0.74;73.82
70544;BME280;58097;48.364;-1.224;2023-03-01T07:57:21;100639.69;;;-0.66;73.93
70544;BME280;58097;48.364;-1.224;2023-03-01T07:59:46;100647.28;;;-0.54;73.87
70544;BME280;58097;48.364;-1.224;2023-03-01T08:02:12;100645.56;;;-0.38;73.88
70544;BME280;58097;48.364;-1.224;2023-03-01T08:04:37;100644.03;;;-0.24;73.84
70544;BME280;58097;48.364;-1.224;2023-03-01T08:07:04;100638.69;;;-0.09;73.70
70544;BME280;58097;48.364;-1.224;2023-03-01T08:09:30;100628.13;;;0.04;73.62
70544;BME280;58097;48.364;-1.224;2023-03-01T08:11:56;100631.81;;;0.20;73.74
70544;BME280;58097;48.364;-1.224;2023-03-01T08:14:24;100630.47;;;0.29;73.71
70544;BME280;58097;48.364;-1.224;2023-03-01T08:16:50;100624.63;;;0.37;73.18
70544;BME280;58097;48.364;-1.224;2023-03-01T08:19:15;100624.06;;;0.47;73.24
70544;BME280;58097;48.364;-1.224;2023-03-01T08:21:40;100621.81;;;0.55;72.58
70544;BME280;58097;48.364;-1.224;2023-03-01T08:24:07;100620.06;;;0.72;72.96
70544;BME280;58097;48.364;-1.224;2023-03-01T08:26:33;100615.94;;;0.80;72.90
70544;BME280;58097;48.364;-1.224;2023-03-01T08:28:59;100611.72;;;0.92;72.62
70544;BME280;58097;48.364;-1.224;2023-03-01T08:31:28;100610.16;;;1.04;72.58
70544;BME280;58097;48.364;-1.224;2023-03-01T08:33:56;100615.47;;;1.22;72.51
70544;BME280;58097;48.364;-1.224;2023-03-01T08:36:30;100611.78;;;1.39;72.16
70544;BME280;58097;48.364;-1.224;2023-03-01T08:38:56;100610.94;;;1.54;72.12
70544;BME280;58097;48.364;-1.224;2023-03-01T08:41:22;100607.97;;;1.75;72.10
70544;BME280;58097;48.364;-1.224;2023-03-01T08:43:48;100603.53;;;1.88;71.34
70544;BME280;58097;48.364;-1.224;2023-03-01T08:46:13;100605.38;;;2.03;71.58
70544;BME280;58097;48.364;-1.224;2023-03-01T08:48:40;100601.41;;;2.09;70.90
70544;BME280;58097;48.364;-1.224;2023-03-01T08:51:13;100605.63;;;2.14;70.00
70544;BME280;58097;48.364;-1.224;2023-03-01T08:53:39;100595.59;;;2.15;69.88
70544;BME280;58097;48.364;-1.224;2023-03-01T08:56:05;100602.69;;;2.17;69.83
70544;BME280;58097;48.364;-1.224;2023-03-01T08:58:31;100604.19;;;2.23;70.14
70544;BME280;58097;48.364;-1.224;2023-03-01T09:00:57;100609.13;;;2.16;68.71
70544;BME280;58097;48.364;-1.224;2023-03-01T09:03:23;100614.59;;;2.16;68.53
70544;BME280;58097;48.364;-1.224;2023-03-01T09:05:50;100604.19;;;2.23;67.77
70544;BME280;58097;48.364;-1.224;2023-03-01T09:08:19;100604.78;;;2.28;68.01
70544;BME280;58097;48.364;-1.224;2023-03-01T09:10:45;100608.38;;;2.29;67.30
70544;BME280;58097;48.364;-1.224;2023-03-01T09:13:10;100607.06;;;2.36;69.42
70544;BME280;58097;48.364;-1.224;2023-03-01T09:15:37;100610.78;;;2.19;66.52
70544;BME280;58097;48.364;-1.224;2023-03-01T09:18:03;100610.41;;;2.25;68.59
70544;BME280;58097;48.364;-1.224;2023-03-01T09:20:28;100608.38;;;2.29;66.49
70544;BME280;58097;48.364;-1.224;2023-03-01T09:22:55;100610.69;;;2.21;66.48
70544;BME280;58097;48.364;-1.224;2023-03-01T09:25:21;100606.03;;;2.23;68.14
70544;BME280;58097;48.364;-1.224;2023-03-01T09:27:46;100603.78;;;2.45;69.21
70544;BME280;58097;48.364;-1.224;2023-03-01T09:30:12;100606.63;;;2.58;68.88
70544;BME280;58097;48.364;-1.224;2023-03-01T09:32:37;100595.97;;;2.39;65.97
70544;BME280;58097;48.364;-1.224;2023-03-01T09:35:08;100600.66;;;2.51;67.25
70544;BME280;58097;48.364;-1.224;2023-03-01T09:37:34;100594.72;;;2.44;65.69
70544;BME280;58097;48.364;-1.224;2023-03-01T09:40:00;100591.03;;;2.60;69.39
70544;BME280;58097;48.364;-1.224;2023-03-01T09:42:26;100603.34;;;2.81;68.51
70544;BME280;58097;48.364;-1.224;2023-03-01T09:47:32;100595.09;;;2.97;66.81
70544;BME280;58097;48.364;-1.224;2023-03-01T09:50:20;100594.19;;;2.82;66.78
70544;BME280;58097;48.364;-1.224;2023-03-01T09:53:06;100600.25;;;2.87;68.67
70544;BME280;58097;48.364;-1.224;2023-03-01T09:55:39;100591.94;;;2.89;67.72
70544;BME280;58097;48.364;-1.224;2023-03-01T09:58:37;100593.84;;;3.02;66.49
70544;BME280;58097;48.364;-1.224;2023-03-01T10:03:49;100582.13;;;3.15;66.35
70544;BME280;58097;48.364;-1.224;2023-03-01T10:06:22;100573.16;;;3.27;66.63
70544;BME280;58097;48.364;-1.224;2023-03-01T10:09:00;100567.00;;;3.37;67.17
70544;BME280;58097;48.364;-1.224;2023-03-01T10:11:30;100567.47;;;3.44;66.49
70544;BME280;58097;48.364;-1.224;2023-03-01T10:16:43;100571.25;;;3.56;66.59
70544;BME280;58097;48.364;-1.224;2023-03-01T10:19:34;100566.25;;;3.62;65.53
70544;BME280;58097;48.364;-1.224;2023-03-01T10:22:15;100559.25;;;3.58;64.46
70544;BME280;58097;48.364;-1.224;2023-03-01T10:24:41;100562.75;;;3.60;65.52
70544;BME280;58097;48.364;-1.224;2023-03-01T10:32:32;100553.56;;;3.61;64.77
70544;BME280;58097;48.364;-1.224;2023-03-01T10:34:57;100550.78;;;3.76;64.49
70544;BME280;58097;48.364;-1.224;2023-03-01T10:37:23;100549.25;;;3.98;66.06
70544;BME280;58097;48.364;-1.224;2023-03-01T10:40:08;100535.72;;;4.10;65.36
70544;BME280;58097;48.364;-1.224;2023-03-01T10:42:38;100540.25;;;4.23;63.56
70544;BME280;58097;48.364;-1.224;2023-03-01T10:45:37;100544.91;;;4.48;65.46
70544;BME280;58097;48.364;-1.224;2023-03-01T10:48:32;100539.97;;;4.53;63.66
70544;BME280;58097;48.364;-1.224;2023-03-01T10:51:06;100532.19;;;4.60;62.88
70544;BME280;58097;48.364;-1.224;2023-03-01T10:56:10;100522.03;;;4.75;62.25
70544;BME280;58097;48.364;-1.224;2023-03-01T10:58:38;100530.56;;;4.83;64.43
70544;BME280;58097;48.364;-1.224;2023-03-01T11:01:06;100524.66;;;4.76;62.19
70544;BME280;58097;48.364;-1.224;2023-03-01T11:06:28;100536.94;;;4.71;60.67
70544;BME280;58097;48.364;-1.224;2023-03-01T11:08:54;100528.38;;;4.75;59.70
70544;BME280;58097;48.364;-1.224;2023-03-01T11:11:26;100533.66;;;4.78;62.55
70544;BME280;58097;48.364;-1.224;2023-03-01T11:14:24;100511.63;;;4.92;61.55
70544;BME280;58097;48.364;-1.224;2023-03-01T11:17:05;100518.31;;;5.01;62.34
70544;BME280;58097;48.364;-1.224;2023-03-01T11:19:31;100514.91;;;4.85;58.78
70544;BME280;58097;48.364;-1.224;2023-03-01T11:22:20;100509.78;;;4.93;60.46
70544;BME280;58097;48.364;-1.224;2023-03-01T11:24:49;100508.78;;;4.94;58.98
70544;BME280;58097;48.364;-1.224;2023-03-01T11:29:55;100497.97;;;5.29;62.17
70544;BME280;58097;48.364;-1.224;2023-03-01T11:32:25;100497.47;;;5.48;61.73
70544;BME280;58097;48.364;-1.224;2023-03-01T11:34:58;100504.31;;;5.66;59.34
70544;BME280;58097;48.364;-1.224;2023-03-01T11:43:43;100495.69;;;5.59;57.54
70544;BME280;58097;48.364;-1.224;2023-03-01T11:49:30;100493.84;;;5.47;58.57
70544;BME280;58097;48.364;-1.224;2023-03-01T11:52:13;100491.50;;;5.67;59.65
70544;BME280;58097;48.364;-1.224;2023-03-01T12:14:31;100471.94;;;6.65;58.19
70544;BME280;58097;48.364;-1.224;2023-03-01T12:30:06;100452.56;;;6.56;57.66
70544;BME280;58097;48.364;-1.224;2023-03-01T12:32:51;100438.47;;;6.71;56.81
70544;BME280;58097;48.364;-1.224;2023-03-01T12:38:49;100443.06;;;6.48;55.00
70544;BME280;58097;48.364;-1.224;2023-03-01T12:41:31;100449.72;;;6.68;57.61
70544;BME280;58097;48.364;-1.224;2023-03-01T12:49:23;100431.84;;;7.07;57.08
70544;BME280;58097;48.364;-1.224;2023-03-01T12:51:56;100436.31;;;7.20;56.30
70544;BME280;58097;48.364;-1.224;2023-03-01T12:54:28;100425.84;;;7.25;56.60
70544;BME280;58097;48.364;-1.224;2023-03-01T12:56:55;100416.81;;;7.34;55.60
70544;BME280;58097;48.364;-1.224;2023-03-01T13:02:10;100411.50;;;6.99;54.55
70544;BME280;58097;48.364;-1.224;2023-03-01T13:07:38;100399.00;;;6.83;54.14
70544;BME280;58097;48.364;-1.224;2023-03-01T13:23:03;100383.22;;;7.30;54.83
70544;BME280;58097;48.364;-1.224;2023-03-01T13:25:30;100384.22;;;7.18;53.06
70544;BME280;58097;48.364;-1.224;2023-03-01T13:30:59;100368.25;;;7.12;56.49
70544;BME280;58097;48.364;-1.224;2023-03-01T13:35:54;100361.69;;;6.70;55.60
70544;BME280;58097;48.364;-1.224;2023-03-01T13:41:16;100355.91;;;6.28;54.48
70544;BME280;58097;48.364;-1.224;2023-03-01T13:43:44;100363.53;;;6.13;55.06
70544;BME280;58097;48.364;-1.224;2023-03-01T13:46:18;100348.56;;;6.29;54.84
70544;BME280;58097;48.364;-1.224;2023-03-01T13:48:49;100354.69;;;6.32;54.48
70544;BME280;58097;48.364;-1.224;2023-03-01T13:51:15;100351.94;;;6.55;55.61
70544;BME280;58097;48.364;-1.224;2023-03-01T13:53:46;100342.44;;;6.81;55.97
70544;BME280;58097;48.364;-1.224;2023-03-01T13:56:18;100339.19;;;6.98;56.07
70544;BME280;58097;48.364;-1.224;2023-03-01T13:58:58;100333.94;;;6.95;55.64
70544;BME280;58097;48.364;-1.224;2023-03-01T14:01:30;100331.81;;;6.88;53.56
70544;BME280;58097;48.364;-1.224;2023-03-01T14:03:56;100335.03;;;6.93;54.96
70544;BME280;58097;48.364;-1.224;2023-03-01T14:06:27;100330.69;;;7.01;55.33
70544;BME280;58097;48.364;-1.224;2023-03-01T14:09:23;100324.41;;;7.10;55.83
70544;BME280;58097;48.364;-1.224;2023-03-01T14:14:46;100314.88;;;7.26;57.14
70544;BME280;58097;48.364;-1.224;2023-03-01T14:19:55;100298.72;;;7.32;57.57
70544;BME280;58097;48.364;-1.224;2023-03-01T14:22:24;100306.38;;;7.18;56.57
70544;BME280;58097;48.364;-1.224;2023-03-01T14:24:59;100296.63;;;7.25;56.29
70544;BME280;58097;48.364;-1.224;2023-03-01T14:27:35;100295.88;;;7.23;56.31
70544;BME280;58097;48.364;-1.224;2023-03-01T14:30:12;100300.47;;;7.22;55.85
70544;BME280;58097;48.364;-1.224;2023-03-01T14:32:40;100297.38;;;7.27;56.03
70544;BME280;58097;48.364;-1.224;2023-03-01T14:35:24;100289.34;;;7.35;57.00
70544;BME280;58097;48.364;-1.224;2023-03-01T14:37:50;100291.69;;;7.39;56.43
70544;BME280;58097;48.364;-1.224;2023-03-01T14:42:46;100277.97;;;7.60;57.60
70544;BME280;58097;48.364;-1.224;2023-03-01T14:45:13;100285.34;;;7.60;58.25
70544;BME280;58097;48.364;-1.224;2023-03-01T14:47:39;100275.81;;;7.64;57.49